sensor_id;sensor_type;location;lat;lon;timestamp;temperature;humidity
5786;DHT22;2919;48.630;9.000;2022-07-23T00:00:58;21.10;95.70
5786;DHT22;2919;48.630;9.000;2022-07-23T00:03:24;21.20;95.20
5786;DHT22;2919;48.630;9.000;2022-07-23T00:05:51;21.30;95.00
5786;DHT22;2919;48.630;9.000;2022-07-23T00:08:17;21.30;94.70
5786;DHT22;2919;48.630;9.000;2022-07-23T00:10:42;21.40;94.20
5786;DHT22;2919;48.630;9.000;2022-07-23T00:13:08;21.40;94.20
5786;DHT22;2919;48.630;9.000;2022-07-23T00:15:34;21.40;94.20
5786;DHT22;2919;48.630;9.000;2022-07-23T00:17:59;21.40;94.10
5786;DHT22;2919;48.630;9.000;2022-07-23T00:20:25;21.40;94.70
5786;DHT22;2919;48.630;9.000;2022-07-23T00:22:53;21.30;95.00
5786;DHT22;2919;48.630;9.000;2022-07-23T00:25:19;21.20;95.30
5786;DHT22;2919;48.630;9.000;2022-07-23T00:27:45;21.10;95.60
5786;DHT22;2919;48.630;9.000;2022-07-23T00:30:11;21.00;95.50
5786;DHT22;2919;48.630;9.000;2022-07-23T00:32:53;21.00;95.40
5786;DHT22;2919;48.630;9.000;2022-07-23T00:35:21;21.00;94.90
5786;DHT22;2919;48.630;9.000;2022-07-23T00:37:47;21.10;95.00
5786;DHT22;2919;48.630;9.000;2022-07-23T00:40:12;21.10;95.10
5786;DHT22;2919;48.630;9.000;2022-07-23T00:42:39;21.10;94.70
5786;DHT22;2919;48.630;9.000;2022-07-23T00:45:06;21.00;94.40
5786;DHT22;2919;48.630;9.000;2022-07-23T00:47:32;21.10;94.30
5786;DHT22;2919;48.630;9.000;2022-07-23T00:49:57;21.10;94.40
5786;DHT22;2919;48.630;9.000;2022-07-23T00:52:23;21.10;94.50
5786;DHT22;2919;48.630;9.000;2022-07-23T00:54:49;21.10;94.60
5786;DHT22;2919;48.630;9.000;2022-07-23T00:57:15;21.10;94.10
5786;DHT22;2919;48.630;9.000;2022-07-23T00:59:41;21.10;94.10
5786;DHT22;2919;48.630;9.000;2022-07-23T01:02:07;21.10;94.20
5786;DHT22;2919;48.630;9.000;2022-07-23T01:04:33;21.10;94.10
5786;DHT22;2919;48.630;9.000;2022-07-23T01:06:59;21.20;94.40
5786;DHT22;2919;48.630;9.000;2022-07-23T01:09:26;21.10;94.70
5786;DHT22;2919;48.630;9.000;2022-07-23T01:11:51;20.90;95.40
5786;DHT22;2919;48.630;9.000;2022-07-23T01:14:19;20.80;95.70
5786;DHT22;2919;48.630;9.000;2022-07-23T01:16:47;20.70;96.80
5786;DHT22;2919;48.630;9.000;2022-07-23T01:19:13;20.60;96.60
5786;DHT22;2919;48.630;9.000;2022-07-23T01:21:50;20.60;97.10
5786;DHT22;2919;48.630;9.000;2022-07-23T01:24:17;20.50;97.20
5786;DHT22;2919;48.630;9.000;2022-07-23T01:26:46;20.40;97.90
5786;DHT22;2919;48.630;9.000;2022-07-23T01:29:12;20.40;97.70
5786;DHT22;2919;48.630;9.000;2022-07-23T01:31:38;20.40;98.10
5786;DHT22;2919;48.630;9.000;2022-07-23T01:34:04;20.30;98.60
5786;DHT22;2919;48.630;9.000;2022-07-23T01:36:33;20.30;99.40
5786;DHT22;2919;48.630;9.000;2022-07-23T01:38:58;20.20;99.90
5786;DHT22;2919;48.630;9.000;2022-07-23T01:41:24;20.10;99.90
5786;DHT22;2919;48.630;9.000;2022-07-23T01:43:50;20.00;99.90
5786;DHT22;2919;48.630;9.000;2022-07-23T01:46:16;20.00;99.90
5786;DHT22;2919;48.630;9.000;2022-07-23T01:48:41;19.90;99.90
5786;DHT22;2919;48.630;9.000;2022-07-23T01:51:07;19.80;99.90
5786;DHT22;2919;48.630;9.000;2022-07-23T01:53:33;19.80;99.90
5786;DHT22;2919;48.630;9.000;2022-07-23T01:55:59;19.70;99.90
5786;DHT22;2919;48.630;9.000;2022-07-23T01:58:26;19.70;99.90
5786;DHT22;2919;48.630;9.000;2022-07-23T02:00:53;19.70;99.90
5786;DHT22;2919;48.630;9.000;2022-07-23T02:03:19;19.70;99.90
5786;DHT22;2919;48.630;9.000;2022-07-23T02:05:45;19.70;99.90
5786;DHT22;2919;48.630;9.000;2022-07-23T02:08:10;19.70;99.90
5786;DHT22;2919;48.630;9.000;2022-07-23T02:10:36;19.80;99.90
5786;DHT22;2919;48.630;9.000;2022-07-23T02:13:02;19.80;99.90
5786;DHT22;2919;48.630;9.000;2022-07-23T02:15:28;19.80;99.90
5786;DHT22;2919;48.630;9.000;2022-07-23T02:17:54;19.90;99.90
5786;DHT22;2919;48.630;9.000;2022-07-23T02:20:21;19.90;99.90
5786;DHT22;2919;48.630;9.000;2022-07-23T02:22:47;19.90;99.90
5786;DHT22;2919;48.630;9.000;2022-07-23T02:25:12;19.90;99.90
5786;DHT22;2919;48.630;9.000;2022-07-23T02:27:38;20.00;99.90
5786;DHT22;2919;48.630;9.000;2022-07-23T02:30:05;20.00;99.90
5786;DHT22;2919;48.630;9.000;2022-07-23T02:32:30;20.00;99.90
5786;DHT22;2919;48.630;9.000;2022-07-23T02:34:56;20.00;99.50
5786;DHT22;2919;48.630;9.000;2022-07-23T02:37:22;20.10;99.60
5786;DHT22;2919;48.630;9.000;2022-07-23T02:39:47;20.10;99.90
5786;DHT22;2919;48.630;9.000;2022-07-23T02:42:16;20.00;99.90
5786;DHT22;2919;48.630;9.000;2022-07-23T02:44:43;20.00;99.90
5786;DHT22;2919;48.630;9.000;2022-07-23T02:47:08;20.00;99.90
5786;DHT22;2919;48.630;9.000;2022-07-23T02:49:34;19.90;99.90
5786;DHT22;2919;48.630;9.000;2022-07-23T02:52:00;19.90;99.90
5786;DHT22;2919;48.630;9.000;2022-07-23T02:54:25;19.90;99.90
5786;DHT22;2919;48.630;9.000;2022-07-23T02:56:51;19.90;99.90
5786;DHT22;2919;48.630;9.000;2022-07-23T02:59:17;19.90;99.90
5786;DHT22;2919;48.630;9.000;2022-07-23T03:01:43;19.90;99.90
5786;DHT22;2919;48.630;9.000;2022-07-23T03:04:09;19.90;99.90
5786;DHT22;2919;48.630;9.000;2022-07-23T03:06:35;19.80;99.90
5786;DHT22;2919;48.630;9.000;2022-07-23T03:09:01;19.80;99.90
5786;DHT22;2919;48.630;9.000;2022-07-23T03:11:27;19.70;99.90
5786;DHT22;2919;48.630;9.000;2022-07-23T03:13:53;19.80;99.90
5786;DHT22;2919;48.630;9.000;2022-07-23T03:16:19;19.80;99.90
5786;DHT22;2919;48.630;9.000;2022-07-23T03:18:44;19.90;99.90
5786;DHT22;2919;48.630;9.000;2022-07-23T03:21:10;19.90;99.90
5786;DHT22;2919;48.630;9.000;2022-07-23T03:23:35;20.00;99.90
5786;DHT22;2919;48.630;9.000;2022-07-23T03:26:01;20.00;99.90
5786;DHT22;2919;48.630;9.000;2022-07-23T03:28:27;20.00;99.90
5786;DHT22;2919;48.630;9.000;2022-07-23T03:30:52;19.90;99.90
5786;DHT22;2919;48.630;9.000;2022-07-23T03:33:20;19.90;99.90
5786;DHT22;2919;48.630;9.000;2022-07-23T03:35:47;19.90;99.90
5786;DHT22;2919;48.630;9.000;2022-07-23T03:38:13;19.80;99.90
5786;DHT22;2919;48.630;9.000;2022-07-23T03:40:39;19.80;99.90
5786;DHT22;2919;48.630;9.000;2022-07-23T03:43:04;19.80;99.90
5786;DHT22;2919;48.630;9.000;2022-07-23T03:45:31;19.80;99.90
5786;DHT22;2919;48.630;9.000;2022-07-23T03:47:57;19.80;99.90
5786;DHT22;2919;48.630;9.000;2022-07-23T03:50:23;19.80;99.90
5786;DHT22;2919;48.630;9.000;2022-07-23T03:52:48;19.70;99.90
5786;DHT22;2919;48.630;9.000;2022-07-23T03:55:14;19.60;99.90
5786;DHT22;2919;48.630;9.000;2022-07-23T03:57:41;19.50;99.90
5786;DHT22;2919;48.630;9.000;2022-07-23T04:00:08;19.50;99.90
5786;DHT22;2919;48.630;9.000;2022-07-23T04:02:38;19.50;99.90
5786;DHT22;2919;48.630;9.000;2022-07-23T04:05:04;19.40;99.90
5786;DHT22;2919;48.630;9.000;2022-07-23T04:07:30;19.40;99.90
5786;DHT22;2919;48.630;9.000;2022-07-23T04:09:56;19.40;99.90
5786;DHT22;2919;48.630;9.000;2022-07-23T04:12:25;19.30;99.90
5786;DHT22;2919;48.630;9.000;2022-07-23T04:14:51;19.30;99.90
5786;DHT22;2919;48.630;9.000;2022-07-23T04:17:17;19.30;99.90
5786;DHT22;2919;48.630;9.000;2022-07-23T04:19:43;19.30;99.90
5786;DHT22;2919;48.630;9.000;2022-07-23T04:22:12;19.30;99.90
5786;DHT22;2919;48.630;9.000;2022-07-23T04:24:38;19.20;99.90
5786;DHT22;2919;48.630;9.000;2022-07-23T04:27:04;19.20;99.90
5786;DHT22;2919;48.630;9.000;2022-07-23T04:29:30;19.30;99.90
5786;DHT22;2919;48.630;9.000;2022-07-23T04:31:56;19.30;99.90
5786;DHT22;2919;48.630;9.000;2022-07-23T04:34:22;19.30;99.90
5786;DHT22;2919;48.630;9.000;2022-07-23T04:36:48;19.40;99.90
5786;DHT22;2919;48.630;9.000;2022-07-23T04:39:14;19.40;99.90
5786;DHT22;2919;48.630;9.000;2022-07-23T04:41:39;19.50;99.90
5786;DHT22;2919;48.630;9.000;2022-07-23T04:44:05;19.60;99.90
5786;DHT22;2919;48.630;9.000;2022-07-23T04:46:31;19.60;99.90
5786;DHT22;2919;48.630;9.000;2022-07-23T04:48:57;19.70;99.90
5786;DHT22;2919;48.630;9.000;2022-07-23T04:51:22;19.80;99.90
5786;DHT22;2919;48.630;9.000;2022-07-23T04:53:48;19.90;99.90
5786;DHT22;2919;48.630;9.000;2022-07-23T04:56:14;19.90;99.90
5786;DHT22;2919;48.630;9.000;2022-07-23T04:58:39;20.00;99.90
5786;DHT22;2919;48.630;9.000;2022-07-23T05:01:08;20.00;99.90
5786;DHT22;2919;48.630;9.000;2022-07-23T05:03:33;20.10;99.90
5786;DHT22;2919;48.630;9.000;2022-07-23T05:05:59;20.10;99.90
5786;DHT22;2919;48.630;9.000;2022-07-23T05:08:25;20.20;99.90
5786;DHT22;2919;48.630;9.000;2022-07-23T05:10:50;20.20;99.90
5786;DHT22;2919;48.630;9.000;2022-07-23T05:13:17;20.20;99.90
5786;DHT22;2919;48.630;9.000;2022-07-23T05:15:43;20.30;99.90
5786;DHT22;2919;48.630;9.000;2022-07-23T05:18:09;20.30;99.90
5786;DHT22;2919;48.630;9.000;2022-07-23T05:20:35;20.40;99.90
5786;DHT22;2919;48.630;9.000;2022-07-23T05:23:00;20.50;99.90
5786;DHT22;2919;48.630;9.000;2022-07-23T05:25:26;20.50;99.90
5786;DHT22;2919;48.630;9.000;2022-07-23T05:27:52;20.60;99.90
5786;DHT22;2919;48.630;9.000;2022-07-23T05:30:17;20.60;99.90
5786;DHT22;2919;48.630;9.000;2022-07-23T05:32:43;20.70;99.90
5786;DHT22;2919;48.630;9.000;2022-07-23T05:35:09;20.70;99.60
5786;DHT22;2919;48.630;9.000;2022-07-23T05:37:34;20.80;99.60
5786;DHT22;2919;48.630;9.000;2022-07-23T05:40:09;20.80;99.60
5786;DHT22;2919;48.630;9.000;2022-07-23T05:42:36;20.80;99.70
5786;DHT22;2919;48.630;9.000;2022-07-23T05:45:03;20.70;99.90
5786;DHT22;2919;48.630;9.000;2022-07-23T05:47:42;20.60;99.90
5786;DHT22;2919;48.630;9.000;2022-07-23T05:50:09;20.50;99.90
5786;DHT22;2919;48.630;9.000;2022-07-23T05:52:35;20.50;99.90
5786;DHT22;2919;48.630;9.000;2022-07-23T05:55:00;20.60;99.90
5786;DHT22;2919;48.630;9.000;2022-07-23T05:57:26;20.60;99.90
5786;DHT22;2919;48.630;9.000;2022-07-23T05:59:52;20.60;99.90
5786;DHT22;2919;48.630;9.000;2022-07-23T06:02:17;20.70;99.90
5786;DHT22;2919;48.630;9.000;2022-07-23T06:04:43;20.80;99.90
5786;DHT22;2919;48.630;9.000;2022-07-23T06:07:11;20.90;99.90
5786;DHT22;2919;48.630;9.000;2022-07-23T06:09:37;21.00;99.90
5786;DHT22;2919;48.630;9.000;2022-07-23T06:12:03;21.10;99.90
5786;DHT22;2919;48.630;9.000;2022-07-23T06:14:32;21.20;99.90
5786;DHT22;2919;48.630;9.000;2022-07-23T06:16:57;21.30;99.90
5786;DHT22;2919;48.630;9.000;2022-07-23T06:19:24;21.40;99.90
5786;DHT22;2919;48.630;9.000;2022-07-23T06:21:50;21.50;99.90
5786;DHT22;2919;48.630;9.000;2022-07-23T06:24:16;21.60;99.90
5786;DHT22;2919;48.630;9.000;2022-07-23T06:26:42;21.70;99.90
5786;DHT22;2919;48.630;9.000;2022-07-23T06:29:07;21.90;99.90
5786;DHT22;2919;48.630;9.000;2022-07-23T06:31:33;22.00;99.80
5786;DHT22;2919;48.630;9.000;2022-07-23T06:33:59;22.10;99.80
5786;DHT22;2919;48.630;9.000;2022-07-23T06:36:25;22.30;99.90
5786;DHT22;2919;48.630;9.000;2022-07-23T06:38:50;22.50;99.90
5786;DHT22;2919;48.630;9.000;2022-07-23T06:41:16;22.70;99.90
5786;DHT22;2919;48.630;9.000;2022-07-23T06:43:42;22.90;99.00
5786;DHT22;2919;48.630;9.000;2022-07-23T06:46:07;23.00;98.10
5786;DHT22;2919;48.630;9.000;2022-07-23T06:48:33;22.90;98.60
5786;DHT22;2919;48.630;9.000;2022-07-23T06:51:01;23.00;98.90
5786;DHT22;2919;48.630;9.000;2022-07-23T06:53:27;23.00;98.90
5786;DHT22;2919;48.630;9.000;2022-07-23T06:55:53;23.10;98.30
5786;DHT22;2919;48.630;9.000;2022-07-23T06:58:19;23.10;97.70
5786;DHT22;2919;48.630;9.000;2022-07-23T07:00:45;23.20;98.00
5786;DHT22;2919;48.630;9.000;2022-07-23T07:03:11;23.00;98.20
5786;DHT22;2919;48.630;9.000;2022-07-23T07:05:37;22.90;97.50
5786;DHT22;2919;48.630;9.000;2022-07-23T07:08:05;22.70;98.10
5786;DHT22;2919;48.630;9.000;2022-07-23T07:10:31;22.60;98.70
5786;DHT22;2919;48.630;9.000;2022-07-23T07:12:56;22.50;99.00
5786;DHT22;2919;48.630;9.000;2022-07-23T07:15:22;22.40;98.60
5786;DHT22;2919;48.630;9.000;2022-07-23T07:17:48;22.30;98.30
5786;DHT22;2919;48.630;9.000;2022-07-23T07:20:14;22.30;98.70
5786;DHT22;2919;48.630;9.000;2022-07-23T07:22:40;22.40;97.00
5786;DHT22;2919;48.630;9.000;2022-07-23T07:25:06;22.60;97.00
5786;DHT22;2919;48.630;9.000;2022-07-23T07:27:32;22.80;96.20
5786;DHT22;2919;48.630;9.000;2022-07-23T07:29:57;23.10;95.20
5786;DHT22;2919;48.630;9.000;2022-07-23T07:32:23;23.40;95.10
5786;DHT22;2919;48.630;9.000;2022-07-23T07:34:49;23.90;94.00
5786;DHT22;2919;48.630;9.000;2022-07-23T07:37:15;24.10;94.50
5786;DHT22;2919;48.630;9.000;2022-07-23T07:39:40;24.30;93.50
5786;DHT22;2919;48.630;9.000;2022-07-23T07:42:06;24.60;92.90
5786;DHT22;2919;48.630;9.000;2022-07-23T07:44:32;24.80;93.00
5786;DHT22;2919;48.630;9.000;2022-07-23T07:46:58;25.40;91.80
5786;DHT22;2919;48.630;9.000;2022-07-23T07:49:24;26.00;90.10
5786;DHT22;2919;48.630;9.000;2022-07-23T07:51:49;26.40;88.40
5786;DHT22;2919;48.630;9.000;2022-07-23T07:54:15;27.00;88.00
5786;DHT22;2919;48.630;9.000;2022-07-23T07:56:41;27.10;88.50
5786;DHT22;2919;48.630;9.000;2022-07-23T07:59:06;27.20;86.10
5786;DHT22;2919;48.630;9.000;2022-07-23T08:01:32;27.80;81.70
5786;DHT22;2919;48.630;9.000;2022-07-23T08:03:58;28.10;80.60
5786;DHT22;2919;48.630;9.000;2022-07-23T08:06:23;27.40;84.00
5786;DHT22;2919;48.630;9.000;2022-07-23T08:08:49;26.60;84.40
5786;DHT22;2919;48.630;9.000;2022-07-23T08:11:15;25.70;90.10
5786;DHT22;2919;48.630;9.000;2022-07-23T08:13:41;25.00;91.40
5786;DHT22;2919;48.630;9.000;2022-07-23T08:16:10;24.80;91.50
5786;DHT22;2919;48.630;9.000;2022-07-23T08:18:35;24.80;91.90
5786;DHT22;2919;48.630;9.000;2022-07-23T08:21:01;25.10;91.90
5786;DHT22;2919;48.630;9.000;2022-07-23T08:23:27;25.60;90.50
5786;DHT22;2919;48.630;9.000;2022-07-23T08:25:53;25.80;90.30
5786;DHT22;2919;48.630;9.000;2022-07-23T08:28:19;25.80;90.00
5786;DHT22;2919;48.630;9.000;2022-07-23T08:30:45;25.50;89.30
5786;DHT22;2919;48.630;9.000;2022-07-23T08:33:12;25.20;90.50
5786;DHT22;2919;48.630;9.000;2022-07-23T08:35:47;25.30;90.20
5786;DHT22;2919;48.630;9.000;2022-07-23T08:38:14;25.10;90.30
5786;DHT22;2919;48.630;9.000;2022-07-23T08:40:45;25.10;90.60
5786;DHT22;2919;48.630;9.000;2022-07-23T08:43:16;25.30;90.10
5786;DHT22;2919;48.630;9.000;2022-07-23T08:45:45;25.80;87.10
5786;DHT22;2919;48.630;9.000;2022-07-23T08:48:18;26.30;87.20
5786;DHT22;2919;48.630;9.000;2022-07-23T08:50:49;26.80;87.60
5786;DHT22;2919;48.630;9.000;2022-07-23T08:53:16;26.80;84.50
5786;DHT22;2919;48.630;9.000;2022-07-23T08:55:47;26.70;85.70
5786;DHT22;2919;48.630;9.000;2022-07-23T08:58:13;26.70;85.80
5786;DHT22;2919;48.630;9.000;2022-07-23T09:00:39;26.70;86.30
5786;DHT22;2919;48.630;9.000;2022-07-23T09:03:05;26.60;86.30
5786;DHT22;2919;48.630;9.000;2022-07-23T09:05:31;26.40;85.40
5786;DHT22;2919;48.630;9.000;2022-07-23T09:08:13;26.20;85.40
5786;DHT22;2919;48.630;9.000;2022-07-23T09:10:55;26.00;86.90
5786;DHT22;2919;48.630;9.000;2022-07-23T09:16:03;26.00;89.20
5786;DHT22;2919;48.630;9.000;2022-07-23T09:18:59;26.10;87.50
5786;DHT22;2919;48.630;9.000;2022-07-23T09:21:24;26.00;86.50
5786;DHT22;2919;48.630;9.000;2022-07-23T09:24:26;26.00;88.50
5786;DHT22;2919;48.630;9.000;2022-07-23T09:26:47;26.20;86.40
5786;DHT22;2919;48.630;9.000;2022-07-23T09:34:33;27.20;86.80
5786;DHT22;2919;48.630;9.000;2022-07-23T09:37:13;27.50;83.70
5786;DHT22;2919;48.630;9.000;2022-07-23T09:39:40;27.80;85.00
5786;DHT22;2919;48.630;9.000;2022-07-23T09:44:44;28.20;83.20
5786;DHT22;2919;48.630;9.000;2022-07-23T09:47:10;28.30;83.30
5786;DHT22;2919;48.630;9.000;2022-07-23T09:49:36;28.10;83.70
5786;DHT22;2919;48.630;9.000;2022-07-23T09:52:02;27.80;82.70
5786;DHT22;2919;48.630;9.000;2022-07-23T09:54:37;27.70;84.40
5786;DHT22;2919;48.630;9.000;2022-07-23T09:57:11;28.20;81.80
5786;DHT22;2919;48.630;9.000;2022-07-23T09:59:41;28.50;81.60
5786;DHT22;2919;48.630;9.000;2022-07-23T10:02:09;28.40;82.90
5786;DHT22;2919;48.630;9.000;2022-07-23T10:04:35;28.60;81.00
5786;DHT22;2919;48.630;9.000;2022-07-23T10:07:03;28.60;81.40
5786;DHT22;2919;48.630;9.000;2022-07-23T10:09:34;28.50;81.50
5786;DHT22;2919;48.630;9.000;2022-07-23T10:12:01;28.30;83.00
5786;DHT22;2919;48.630;9.000;2022-07-23T10:14:35;28.40;83.40
5786;DHT22;2919;48.630;9.000;2022-07-23T10:17:02;28.30;83.80
5786;DHT22;2919;48.630;9.000;2022-07-23T10:19:29;28.30;84.20
5786;DHT22;2919;48.630;9.000;2022-07-23T10:22:01;28.20;84.20
5786;DHT22;2919;48.630;9.000;2022-07-23T10:27:54;28.30;81.20
5786;DHT22;2919;48.630;9.000;2022-07-23T10:41:36;27.90;80.20
5786;DHT22;2919;48.630;9.000;2022-07-23T10:44:09;27.60;84.30
5786;DHT22;2919;48.630;9.000;2022-07-23T10:46:35;27.50;84.90
5786;DHT22;2919;48.630;9.000;2022-07-23T10:49:24;27.60;85.10
5786;DHT22;2919;48.630;9.000;2022-07-23T10:54:53;28.20;81.30
5786;DHT22;2919;48.630;9.000;2022-07-23T10:57:24;28.20;82.30
5786;DHT22;2919;48.630;9.000;2022-07-23T11:00:16;28.10;81.30
5786;DHT22;2919;48.630;9.000;2022-07-23T11:02:46;28.20;78.30
5786;DHT22;2919;48.630;9.000;2022-07-23T11:05:21;28.50;75.20
5786;DHT22;2919;48.630;9.000;2022-07-23T11:26:46;28.40;74.40
5786;DHT22;2919;48.630;9.000;2022-07-23T11:34:49;28.40;72.90
5786;DHT22;2919;48.630;9.000;2022-07-23T11:37:38;28.50;73.70
5786;DHT22;2919;48.630;9.000;2022-07-23T11:40:07;28.70;72.70
5786;DHT22;2919;48.630;9.000;2022-07-23T11:42:35;28.50;73.80
5786;DHT22;2919;48.630;9.000;2022-07-23T11:45:01;28.60;75.80
5786;DHT22;2919;48.630;9.000;2022-07-23T11:47:27;28.90;72.70
5786;DHT22;2919;48.630;9.000;2022-07-23T11:49:58;28.90;70.70
5786;DHT22;2919;48.630;9.000;2022-07-23T11:52:25;28.60;76.50
5786;DHT22;2919;48.630;9.000;2022-07-23T11:54:58;28.80;72.10
5786;DHT22;2919;48.630;9.000;2022-07-23T11:57:28;29.00;71.00
5786;DHT22;2919;48.630;9.000;2022-07-23T11:59:56;28.90;75.20
5786;DHT22;2919;48.630;9.000;2022-07-23T12:02:23;29.00;72.70
5786;DHT22;2919;48.630;9.000;2022-07-23T12:04:51;29.10;74.20
5786;DHT22;2919;48.630;9.000;2022-07-23T12:10:02;29.70;71.20
5786;DHT22;2919;48.630;9.000;2022-07-23T12:12:35;29.40;73.40
5786;DHT22;2919;48.630;9.000;2022-07-23T12:15:03;29.60;73.50
5786;DHT22;2919;48.630;9.000;2022-07-23T12:17:30;29.60;71.00
5786;DHT22;2919;48.630;9.000;2022-07-23T12:20:00;29.90;69.90
5786;DHT22;2919;48.630;9.000;2022-07-23T12:22:42;29.90;67.80
5786;DHT22;2919;48.630;9.000;2022-07-23T12:25:17;29.60;70.30
5786;DHT22;2919;48.630;9.000;2022-07-23T12:27:44;29.30;72.40
5786;DHT22;2919;48.630;9.000;2022-07-23T12:30:28;28.90;72.40
5786;DHT22;2919;48.630;9.000;2022-07-23T12:32:56;28.60;73.70
5786;DHT22;2919;48.630;9.000;2022-07-23T12:35:29;28.70;71.90
5786;DHT22;2919;48.630;9.000;2022-07-23T12:38:03;28.70;71.50
5786;DHT22;2919;48.630;9.000;2022-07-23T12:43:03;28.10;74.40
5786;DHT22;2919;48.630;9.000;2022-07-23T12:48:20;27.60;75.40
5786;DHT22;2919;48.630;9.000;2022-07-23T12:53:24;27.80;75.20
5786;DHT22;2919;48.630;9.000;2022-07-23T12:55:57;27.90;74.20
5786;DHT22;2919;48.630;9.000;2022-07-23T12:58:25;27.90;76.10
5786;DHT22;2919;48.630;9.000;2022-07-23T13:01:03;28.00;75.30
5786;DHT22;2919;48.630;9.000;2022-07-23T13:03:40;27.80;75.60
5786;DHT22;2919;48.630;9.000;2022-07-23T13:06:08;27.70;76.00
5786;DHT22;2919;48.630;9.000;2022-07-23T13:08:36;27.40;76.00
5786;DHT22;2919;48.630;9.000;2022-07-23T13:11:02;27.30;77.10
5786;DHT22;2919;48.630;9.000;2022-07-23T13:13:29;27.50;77.80
5786;DHT22;2919;48.630;9.000;2022-07-23T13:15:57;27.60;76.50
5786;DHT22;2919;48.630;9.000;2022-07-23T13:18:23;27.70;77.40
5786;DHT22;2919;48.630;9.000;2022-07-23T13:20:50;27.80;78.30
5786;DHT22;2919;48.630;9.000;2022-07-23T13:23:16;27.90;75.20
5786;DHT22;2919;48.630;9.000;2022-07-23T13:25:42;28.20;74.70
5786;DHT22;2919;48.630;9.000;2022-07-23T13:28:08;28.10;74.00
5786;DHT22;2919;48.630;9.000;2022-07-23T13:30:34;27.90;74.80
5786;DHT22;2919;48.630;9.000;2022-07-23T13:33:02;27.90;75.60
5786;DHT22;2919;48.630;9.000;2022-07-23T13:35:28;27.90;75.90
5786;DHT22;2919;48.630;9.000;2022-07-23T13:37:54;27.90;76.80
5786;DHT22;2919;48.630;9.000;2022-07-23T13:40:20;27.90;77.40
5786;DHT22;2919;48.630;9.000;2022-07-23T13:42:45;27.70;76.30
5786;DHT22;2919;48.630;9.000;2022-07-23T13:45:11;27.70;75.30
5786;DHT22;2919;48.630;9.000;2022-07-23T13:47:37;27.40;76.50
5786;DHT22;2919;48.630;9.000;2022-07-23T13:50:03;27.30;77.50
5786;DHT22;2919;48.630;9.000;2022-07-23T13:52:29;27.10;79.20
5786;DHT22;2919;48.630;9.000;2022-07-23T13:54:55;27.10;77.50
5786;DHT22;2919;48.630;9.000;2022-07-23T13:57:20;27.10;75.90
5786;DHT22;2919;48.630;9.000;2022-07-23T13:59:46;27.00;76.80
5786;DHT22;2919;48.630;9.000;2022-07-23T14:02:13;27.00;78.70
5786;DHT22;2919;48.630;9.000;2022-07-23T14:04:40;27.20;76.30
5786;DHT22;2919;48.630;9.000;2022-07-23T14:07:06;27.40;75.50
5786;DHT22;2919;48.630;9.000;2022-07-23T14:09:31;27.50;74.70
5786;DHT22;2919;48.630;9.000;2022-07-23T14:11:59;27.40;75.60
5786;DHT22;2919;48.630;9.000;2022-07-23T14:14:25;27.30;76.40
5786;DHT22;2919;48.630;9.000;2022-07-23T14:16:51;27.30;79.10
5786;DHT22;2919;48.630;9.000;2022-07-23T14:19:16;27.50;74.90
5786;DHT22;2919;48.630;9.000;2022-07-23T14:21:42;27.60;75.20
5786;DHT22;2919;48.630;9.000;2022-07-23T14:24:08;27.90;75.10
5786;DHT22;2919;48.630;9.000;2022-07-23T14:26:34;28.20;72.70
5786;DHT22;2919;48.630;9.000;2022-07-23T14:29:00;28.30;74.90
5786;DHT22;2919;48.630;9.000;2022-07-23T14:31:26;28.40;74.10
5786;DHT22;2919;48.630;9.000;2022-07-23T14:33:52;28.70;70.50
5786;DHT22;2919;48.630;9.000;2022-07-23T14:36:17;28.80;70.50
5786;DHT22;2919;48.630;9.000;2022-07-23T14:38:43;28.90;74.30
5786;DHT22;2919;48.630;9.000;2022-07-23T14:41:09;29.10;72.60
5786;DHT22;2919;48.630;9.000;2022-07-23T14:43:35;28.90;68.80
5786;DHT22;2919;48.630;9.000;2022-07-23T14:46:00;28.80;70.30
5786;DHT22;2919;48.630;9.000;2022-07-23T14:48:26;28.90;70.80
5786;DHT22;2919;48.630;9.000;2022-07-23T14:50:52;28.80;71.90
5786;DHT22;2919;48.630;9.000;2022-07-23T14:53:18;28.80;69.60
5786;DHT22;2919;48.630;9.000;2022-07-23T14:55:43;28.60;69.70
5786;DHT22;2919;48.630;9.000;2022-07-23T14:58:09;28.40;71.90
5786;DHT22;2919;48.630;9.000;2022-07-23T15:00:35;28.20;71.20
5786;DHT22;2919;48.630;9.000;2022-07-23T15:03:01;27.80;74.00
5786;DHT22;2919;48.630;9.000;2022-07-23T15:05:26;27.70;76.10
5786;DHT22;2919;48.630;9.000;2022-07-23T15:07:53;27.60;76.20
5786;DHT22;2919;48.630;9.000;2022-07-23T15:10:19;27.60;76.60
5786;DHT22;2919;48.630;9.000;2022-07-23T15:12:44;27.60;74.50
5786;DHT22;2919;48.630;9.000;2022-07-23T15:15:10;27.50;75.30
5786;DHT22;2919;48.630;9.000;2022-07-23T15:17:36;27.50;73.70
5786;DHT22;2919;48.630;9.000;2022-07-23T15:20:02;27.70;71.50
5786;DHT22;2919;48.630;9.000;2022-07-23T15:22:27;27.90;73.70
5786;DHT22;2919;48.630;9.000;2022-07-23T15:24:53;28.10;70.80
5786;DHT22;2919;48.630;9.000;2022-07-23T15:27:19;28.30;70.50
5786;DHT22;2919;48.630;9.000;2022-07-23T15:29:46;28.30;67.80
5786;DHT22;2919;48.630;9.000;2022-07-23T15:32:12;28.10;71.10
5786;DHT22;2919;48.630;9.000;2022-07-23T15:34:38;27.90;73.30
5786;DHT22;2919;48.630;9.000;2022-07-23T15:37:04;27.70;71.10
5786;DHT22;2919;48.630;9.000;2022-07-23T15:39:33;27.60;71.30
5786;DHT22;2919;48.630;9.000;2022-07-23T15:42:02;27.60;73.50
5786;DHT22;2919;48.630;9.000;2022-07-23T15:44:28;27.70;74.20
5786;DHT22;2919;48.630;9.000;2022-07-23T15:46:55;27.80;72.70
5786;DHT22;2919;48.630;9.000;2022-07-23T15:49:21;28.00;71.10
5786;DHT22;2919;48.630;9.000;2022-07-23T15:51:47;28.20;70.20
5786;DHT22;2919;48.630;9.000;2022-07-23T15:54:12;28.10;71.00
5786;DHT22;2919;48.630;9.000;2022-07-23T15:56:38;27.90;73.90
5786;DHT22;2919;48.630;9.000;2022-07-23T15:59:04;27.70;72.60
5786;DHT22;2919;48.630;9.000;2022-07-23T16:01:29;27.60;75.00
5786;DHT22;2919;48.630;9.000;2022-07-23T16:03:56;27.60;73.70
5786;DHT22;2919;48.630;9.000;2022-07-23T16:06:24;27.50;73.30
5786;DHT22;2919;48.630;9.000;2022-07-23T16:08:50;27.50;73.30
5786;DHT22;2919;48.630;9.000;2022-07-23T16:11:16;27.20;74.70
5786;DHT22;2919;48.630;9.000;2022-07-23T16:13:42;27.10;73.80
5786;DHT22;2919;48.630;9.000;2022-07-23T16:16:08;27.10;75.00
5786;DHT22;2919;48.630;9.000;2022-07-23T16:18:34;27.10;73.50
5786;DHT22;2919;48.630;9.000;2022-07-23T16:21:00;27.10;74.20
5786;DHT22;2919;48.630;9.000;2022-07-23T16:23:25;27.00;74.70
5786;DHT22;2919;48.630;9.000;2022-07-23T16:25:51;26.90;75.20
5786;DHT22;2919;48.630;9.000;2022-07-23T16:28:17;26.90;75.50
5786;DHT22;2919;48.630;9.000;2022-07-23T16:30:43;26.80;75.00
5786;DHT22;2919;48.630;9.000;2022-07-23T16:33:08;26.80;76.00
5786;DHT22;2919;48.630;9.000;2022-07-23T16:35:35;26.80;74.70
5786;DHT22;2919;48.630;9.000;2022-07-23T16:38:01;26.70;76.40
5786;DHT22;2919;48.630;9.000;2022-07-23T16:40:29;26.70;76.30
5786;DHT22;2919;48.630;9.000;2022-07-23T16:42:56;26.70;74.00
5786;DHT22;2919;48.630;9.000;2022-07-23T16:45:21;26.60;73.60
5786;DHT22;2919;48.630;9.000;2022-07-23T16:47:47;26.60;74.40
5786;DHT22;2919;48.630;9.000;2022-07-23T16:50:13;26.50;75.20
5786;DHT22;2919;48.630;9.000;2022-07-23T16:52:39;26.50;75.60
5786;DHT22;2919;48.630;9.000;2022-07-23T16:55:05;26.50;75.00
5786;DHT22;2919;48.630;9.000;2022-07-23T16:57:31;26.50;76.10
5786;DHT22;2919;48.630;9.000;2022-07-23T16:59:57;26.50;76.10
5786;DHT22;2919;48.630;9.000;2022-07-23T17:02:23;26.50;77.10
5786;DHT22;2919;48.630;9.000;2022-07-23T17:04:49;26.40;75.60